sensor_id;sensor_type;location;lat;lon;timestamp;pressure;altitude;pressure_sealevel;temperature
11926;BMP180;6022;48.768;18.608;2022-07-03T00:02:09;98791.25;;;16.92
11926;BMP180;6022;48.768;18.608;2022-07-03T00:04:37;98789.88;;;16.88
11926;BMP180;6022;48.768;18.608;2022-07-03T00:07:04;98791.50;;;16.89
11926;BMP180;6022;48.768;18.608;2022-07-03T00:09:32;98795.50;;;16.82
11926;BMP180;6022;48.768;18.608;2022-07-03T00:12:00;98799.53;;;16.75
11926;BMP180;6022;48.768;18.608;2022-07-03T00:14:27;98800.16;;;16.68
11926;BMP180;6022;48.768;18.608;2022-07-03T00:16:55;98790.69;;;16.68
11926;BMP180;6022;48.768;18.608;2022-07-03T00:19:22;98791.78;;;16.66
11926;BMP180;6022;48.768;18.608;2022-07-03T00:21:56;98797.47;;;16.69
11926;BMP180;6022;48.768;18.608;2022-07-03T00:24:28;98786.25;;;16.70
11926;BMP180;6022;48.768;18.608;2022-07-03T00:27:00;98793.50;;;16.65
11926;BMP180;6022;48.768;18.608;2022-07-03T00:29:38;98801.50;;;16.72
11926;BMP180;6022;48.768;18.608;2022-07-03T00:32:15;98798.63;;;16.65
11926;BMP180;6022;48.768;18.608;2022-07-03T00:34:48;98791.88;;;16.64
11926;BMP180;6022;48.768;18.608;2022-07-03T00:37:16;98791.88;;;16.64
11926;BMP180;6022;48.768;18.608;2022-07-03T00:39:44;98791.88;;;16.64
11926;BMP180;6022;48.768;18.608;2022-07-03T00:42:12;98794.81;;;16.60
11926;BMP180;6022;48.768;18.608;2022-07-03T00:45:07;98805.88;;;16.61
11926;BMP180;6022;48.768;18.608;2022-07-03T00:47:36;98804.25;;;16.60
11926;BMP180;6022;48.768;18.608;2022-07-03T00:50:08;98800.69;;;16.51
11926;BMP180;6022;48.768;18.608;2022-07-03T00:52:37;98796.94;;;16.55
11926;BMP180;6022;48.768;18.608;2022-07-03T00:55:16;98794.50;;;16.54
11926;BMP180;6022;48.768;18.608;2022-07-03T00:57:46;98794.75;;;16.51
11926;BMP180;6022;48.768;18.608;2022-07-03T01:00:16;98799.06;;;16.50
11926;BMP180;6022;48.768;18.608;2022-07-03T01:05:37;98784.50;;;16.51
11926;BMP180;6022;48.768;18.608;2022-07-03T01:08:36;98784.75;;;16.48
11926;BMP180;6022;48.768;18.608;2022-07-03T01:11:32;98776.69;;;16.52
11926;BMP180;6022;48.768;18.608;2022-07-03T01:14:26;98776.69;;;16.52
11926;BMP180;6022;48.768;18.608;2022-07-03T01:17:04;98769.13;;;16.51
11926;BMP180;6022;48.768;18.608;2022-07-03T01:19:42;98770.53;;;16.55
11926;BMP180;6022;48.768;18.608;2022-07-03T01:22:41;98774.69;;;16.56
11926;BMP180;6022;48.768;18.608;2022-07-03T01:30:40;98769.13;;;16.51
11926;BMP180;6022;48.768;18.608;2022-07-03T01:33:25;98770.66;;;16.53
11926;BMP180;6022;48.768;18.608;2022-07-03T01:38:37;98757.72;;;16.55
11926;BMP180;6022;48.768;18.608;2022-07-03T01:41:08;98757.03;;;16.53
11926;BMP180;6022;48.768;18.608;2022-07-03T01:46:17;98752.84;;;16.52
11926;BMP180;6022;48.768;18.608;2022-07-03T01:48:45;98751.84;;;16.43
11926;BMP180;6022;48.768;18.608;2022-07-03T01:51:16;98742.09;;;16.37
11926;BMP180;6022;48.768;18.608;2022-07-03T01:53:48;98752.09;;;16.40
11926;BMP180;6022;48.768;18.608;2022-07-03T01:56:18;98754.53;;;16.42
11926;BMP180;6022;48.768;18.608;2022-07-03T01:58:46;98754.25;;;16.45
11926;BMP180;6022;48.768;18.608;2022-07-03T02:01:37;98756.59;;;16.48
11926;BMP180;6022;48.768;18.608;2022-07-03T02:04:32;98750.78;;;16.46
11926;BMP180;6022;48.768;18.608;2022-07-03T02:07:21;98754.03;;;16.48
11926;BMP180;6022;48.768;18.608;2022-07-03T02:10:08;98757.50;;;16.47
11926;BMP180;6022;48.768;18.608;2022-07-03T02:12:52;98751.03;;;16.43
11926;BMP180;6022;48.768;18.608;2022-07-03T02:15:33;98751.53;;;16.37
11926;BMP180;6022;48.768;18.608;2022-07-03T02:18:24;98748.78;;;16.29
11926;BMP180;6022;48.768;18.608;2022-07-03T02:21:27;98750.09;;;16.24
11926;BMP180;6022;48.768;18.608;2022-07-03T02:24:22;98744.28;;;16.22
11926;BMP180;6022;48.768;18.608;2022-07-03T02:26:59;98750.31;;;16.21
11926;BMP180;6022;48.768;18.608;2022-07-03T02:29:54;98736.38;;;16.25
11926;BMP180;6022;48.768;18.608;2022-07-03T02:32:23;98735.09;;;16.19
11926;BMP180;6022;48.768;18.608;2022-07-03T02:35:04;98731.38;;;16.12
11926;BMP180;6022;48.768;18.608;2022-07-03T02:37:41;98731.59;;;16.09
11926;BMP180;6022;48.768;18.608;2022-07-03T02:46:40;98731.03;;;16.06
11926;BMP180;6022;48.768;18.608;2022-07-03T03:01:07;98727.59;;;15.96
11926;BMP180;6022;48.768;18.608;2022-07-03T03:03:39;98730.41;;;15.93
11926;BMP180;6022;48.768;18.608;2022-07-03T03:06:20;98725.91;;;15.86
11926;BMP180;6022;48.768;18.608;2022-07-03T03:08:52;98723.34;;;15.86
11926;BMP180;6022;48.768;18.608;2022-07-03T03:11:42;98726.03;;;15.84
11926;BMP180;6022;48.768;18.608;2022-07-03T03:14:19;98729.38;;;15.85
11926;BMP180;6022;48.768;18.608;2022-07-03T03:16:48;98730.56;;;15.81
11926;BMP180;6022;48.768;18.608;2022-07-03T03:19:21;98744.06;;;15.83
11926;BMP180;6022;48.768;18.608;2022-07-03T03:22:56;98749.75;;;15.86
11926;BMP180;6022;48.768;18.608;2022-07-03T03:24:58;98750.91;;;15.82
11926;BMP180;6022;48.768;18.608;2022-07-03T03:27:27;98746.28;;;15.76
11926;BMP180;6022;48.768;18.608;2022-07-03T03:29:55;98749.88;;;15.74
11926;BMP180;6022;48.768;18.608;2022-07-03T03:32:24;98759.44;;;15.72
11926;BMP180;6022;48.768;18.608;2022-07-03T03:34:52;98751.16;;;15.68
11926;BMP180;6022;48.768;18.608;2022-07-03T03:37:19;98746.06;;;15.68
11926;BMP180;6022;48.768;18.608;2022-07-03T03:39:49;98755.00;;;15.74
11926;BMP180;6022;48.768;18.608;2022-07-03T03:42:17;98760.06;;;15.95
11926;BMP180;6022;48.768;18.608;2022-07-03T03:44:44;98751.00;;;16.23
11926;BMP180;6022;48.768;18.608;2022-07-03T03:47:11;98754.09;;;16.37
11926;BMP180;6022;48.768;18.608;2022-07-03T03:49:38;98741.00;;;16.80
11926;BMP180;6022;48.768;18.608;2022-07-03T03:52:06;98752.75;;;17.42
11926;BMP180;6022;48.768;18.608;2022-07-03T03:54:34;98748.66;;;17.97
11926;BMP180;6022;48.768;18.608;2022-07-03T03:57:23;98733.16;;;18.17
11926;BMP180;6022;48.768;18.608;2022-07-03T03:59:51;98721.84;;;18.65
11926;BMP180;6022;48.768;18.608;2022-07-03T04:02:19;98727.72;;;18.85
11926;BMP180;6022;48.768;18.608;2022-07-03T04:04:46;98725.53;;;18.90
11926;BMP180;6022;48.768;18.608;2022-07-03T04:07:13;98733.53;;;19.32
11926;BMP180;6022;48.768;18.608;2022-07-03T04:09:40;98725.25;;;19.55
11926;BMP180;6022;48.768;18.608;2022-07-03T04:12:09;98721.41;;;19.42
11926;BMP180;6022;48.768;18.608;2022-07-03T04:14:36;98725.81;;;19.32
11926;BMP180;6022;48.768;18.608;2022-07-03T04:17:04;98719.50;;;19.17
11926;BMP180;6022;48.768;18.608;2022-07-03T04:19:31;98727.53;;;19.05
11926;BMP180;6022;48.768;18.608;2022-07-03T04:21:58;98724.31;;;19.03
11926;BMP180;6022;48.768;18.608;2022-07-03T04:24:26;98726.63;;;18.96
11926;BMP180;6022;48.768;18.608;2022-07-03T04:26:53;98722.41;;;18.95
11926;BMP180;6022;48.768;18.608;2022-07-03T04:29:20;98727.72;;;18.85
11926;BMP180;6022;48.768;18.608;2022-07-03T04:31:47;98716.00;;;18.73
11926;BMP180;6022;48.768;18.608;2022-07-03T04:34:14;98716.53;;;18.76
11926;BMP180;6022;48.768;18.608;2022-07-03T04:36:42;98720.41;;;18.90
11926;BMP180;6022;48.768;18.608;2022-07-03T04:39:09;98719.13;;;19.12
11926;BMP180;6022;48.768;18.608;2022-07-03T04:41:36;98723.03;;;19.43
11926;BMP180;6022;48.768;18.608;2022-07-03T04:44:04;98728.16;;;19.69
11926;BMP180;6022;48.768;18.608;2022-07-03T04:46:31;98722.78;;;20.32
11926;BMP180;6022;48.768;18.608;2022-07-03T04:48:58;98729.16;;;21.62
11926;BMP180;6022;48.768;18.608;2022-07-03T04:51:25;98723.97;;;23.12
11926;BMP180;6022;48.768;18.608;2022-07-03T04:53:53;98716.97;;;25.12
11926;BMP180;6022;48.768;18.608;2022-07-03T04:56:21;98717.03;;;26.78
11926;BMP180;6022;48.768;18.608;2022-07-03T04:58:48;98710.78;;;27.93
11926;BMP180;6022;48.768;18.608;2022-07-03T05:01:15;98717.28;;;29.43
11926;BMP180;6022;48.768;18.608;2022-07-03T05:03:42;98711.06;;;30.66
11926;BMP180;6022;48.768;18.608;2022-07-03T05:06:10;98719.22;;;31.65
11926;BMP180;6022;48.768;18.608;2022-07-03T05:08:37;98719.53;;;32.15
11926;BMP180;6022;48.768;18.608;2022-07-03T05:11:04;98712.78;;;32.71
11926;BMP180;6022;48.768;18.608;2022-07-03T05:13:31;98708.00;;;33.02
11926;BMP180;6022;48.768;18.608;2022-07-03T05:15:59;98708.19;;;33.62
11926;BMP180;6022;48.768;18.608;2022-07-03T05:18:26;98707.25;;;33.96
11926;BMP180;6022;48.768;18.608;2022-07-03T05:20:53;98699.22;;;34.84
11926;BMP180;6022;48.768;18.608;2022-07-03T05:23:20;98707.22;;;34.56
11926;BMP180;6022;48.768;18.608;2022-07-03T05:25:47;98713.19;;;35.06
11926;BMP180;6022;48.768;18.608;2022-07-03T05:28:15;98717.56;;;36.06
11926;BMP180;6022;48.768;18.608;2022-07-03T05:30:42;98718.84;;;36.30
11926;BMP180;6022;48.768;18.608;2022-07-03T05:33:09;98719.53;;;36.47
11926;BMP180;6022;48.768;18.608;2022-07-03T05:35:36;98713.94;;;37.30
11926;BMP180;6022;48.768;18.608;2022-07-03T05:38:03;98712.13;;;37.31
11926;BMP180;6022;48.768;18.608;2022-07-03T05:40:31;98717.50;;;37.50
11926;BMP180;6022;48.768;18.608;2022-07-03T05:42:58;98717.25;;;37.01
11926;BMP180;6022;48.768;18.608;2022-07-03T05:45:25;98719.13;;;35.55
11926;BMP180;6022;48.768;18.608;2022-07-03T05:47:53;98725.47;;;35.75
11926;BMP180;6022;48.768;18.608;2022-07-03T05:50:20;98723.84;;;35.53
11926;BMP180;6022;48.768;18.608;2022-07-03T05:52:47;98717.63;;;36.16
11926;BMP180;6022;48.768;18.608;2022-07-03T05:55:14;98715.91;;;36.27
11926;BMP180;6022;48.768;18.608;2022-07-03T05:57:42;98720.84;;;36.18
11926;BMP180;6022;48.768;18.608;2022-07-03T06:00:10;98726.22;;;36.95
11926;BMP180;6022;48.768;18.608;2022-07-03T06:02:37;98731.97;;;38.83
11926;BMP180;6022;48.768;18.608;2022-07-03T06:05:05;98730.94;;;38.54
11926;BMP180;6022;48.768;18.608;2022-07-03T06:07:33;98733.84;;;38.67
11926;BMP180;6022;48.768;18.608;2022-07-03T06:10:00;98731.19;;;39.55
11926;BMP180;6022;48.768;18.608;2022-07-03T06:12:27;98729.41;;;39.88
11926;BMP180;6022;48.768;18.608;2022-07-03T06:14:54;98730.50;;;40.25
11926;BMP180;6022;48.768;18.608;2022-07-03T06:17:28;98716.38;;;40.30
11926;BMP180;6022;48.768;18.608;2022-07-03T06:19:55;98728.81;;;39.96
11926;BMP180;6022;48.768;18.608;2022-07-03T06:22:22;98715.88;;;40.56
11926;BMP180;6022;48.768;18.608;2022-07-03T06:24:50;98721.91;;;41.59
11926;BMP180;6022;48.768;18.608;2022-07-03T06:27:17;98726.06;;;41.05
11926;BMP180;6022;48.768;18.608;2022-07-03T06:29:44;98708.59;;;40.38
11926;BMP180;6022;48.768;18.608;2022-07-03T06:32:12;98717.97;;;40.64
11926;BMP180;6022;48.768;18.608;2022-07-03T06:34:39;98719.09;;;40.81
11926;BMP180;6022;48.768;18.608;2022-07-03T06:37:06;98711.47;;;39.71
11926;BMP180;6022;48.768;18.608;2022-07-03T06:39:34;98718.69;;;38.14
11926;BMP180;6022;48.768;18.608;2022-07-03T06:42:01;98711.75;;;39.64
11926;BMP180;6022;48.768;18.608;2022-07-03T06:44:29;98714.16;;;40.70
11926;BMP180;6022;48.768;18.608;2022-07-03T06:46:56;98714.78;;;41.55
11926;BMP180;6022;48.768;18.608;2022-07-03T06:49:24;98711.41;;;42.22
11926;BMP180;6022;48.768;18.608;2022-07-03T06:51:51;98712.56;;;42.16
11926;BMP180;6022;48.768;18.608;2022-07-03T06:54:19;98709.63;;;42.18
11926;BMP180;6022;48.768;18.608;2022-07-03T06:56:46;98710.13;;;42.20
11926;BMP180;6022;48.768;18.608;2022-07-03T06:59:13;98699.88;;;42.72
11926;BMP180;6022;48.768;18.608;2022-07-03T07:01:40;98706.50;;;42.61
11926;BMP180;6022;48.768;18.608;2022-07-03T07:04:09;98695.09;;;42.42
11926;BMP180;6022;48.768;18.608;2022-07-03T07:06:37;98693.22;;;42.24
11926;BMP180;6022;48.768;18.608;2022-07-03T07:09:05;98701.50;;;42.23
11926;BMP180;6022;48.768;18.608;2022-07-03T07:11:33;98693.38;;;42.91
11926;BMP180;6022;48.768;18.608;2022-07-03T07:14:00;98701.19;;;43.01
11926;BMP180;6022;48.768;18.608;2022-07-03T07:16:27;98688.63;;;41.38
11926;BMP180;6022;48.768;18.608;2022-07-03T07:18:56;98691.03;;;40.65
11926;BMP180;6022;48.768;18.608;2022-07-03T07:21:24;98695.13;;;41.51
11926;BMP180;6022;48.768;18.608;2022-07-03T07:23:52;98700.72;;;41.49
11926;BMP180;6022;48.768;18.608;2022-07-03T07:26:19;98692.81;;;41.21
11926;BMP180;6022;48.768;18.608;2022-07-03T07:28:47;98685.47;;;40.34
11926;BMP180;6022;48.768;18.608;2022-07-03T07:31:14;98690.06;;;41.49
11926;BMP180;6022;48.768;18.608;2022-07-03T07:33:42;98686.22;;;43.40
11926;BMP180;6022;48.768;18.608;2022-07-03T07:36:09;98689.84;;;44.96
11926;BMP180;6022;48.768;18.608;2022-07-03T07:38:36;98691.28;;;44.33
11926;BMP180;6022;48.768;18.608;2022-07-03T07:41:04;98683.31;;;43.98
11926;BMP180;6022;48.768;18.608;2022-07-03T07:43:31;98679.72;;;45.23
11926;BMP180;6022;48.768;18.608;2022-07-03T07:45:59;98685.84;;;46.58
11926;BMP180;6022;48.768;18.608;2022-07-03T07:48:27;98682.81;;;47.33
11926;BMP180;6022;48.768;18.608;2022-07-03T07:50:55;98683.53;;;48.35
11926;BMP180;6022;48.768;18.608;2022-07-03T07:53:23;98683.91;;;48.45
11926;BMP180;6022;48.768;18.608;2022-07-03T07:55:50;98690.84;;;48.14
11926;BMP180;6022;48.768;18.608;2022-07-03T07:58:17;98692.78;;;47.04
11926;BMP180;6022;48.768;18.608;2022-07-03T08:00:44;98687.53;;;47.36
11926;BMP180;6022;48.768;18.608;2022-07-03T08:03:31;98689.28;;;47.81
11926;BMP180;6022;48.768;18.608;2022-07-03T08:06:17;98684.06;;;47.76
11926;BMP180;6022;48.768;18.608;2022-07-03T08:08:45;98684.66;;;48.02
11926;BMP180;6022;48.768;18.608;2022-07-03T08:11:12;98693.50;;;47.91
11926;BMP180;6022;48.768;18.608;2022-07-03T08:13:39;98678.91;;;47.92
11926;BMP180;6022;48.768;18.608;2022-07-03T08:16:06;98687.78;;;47.72
11926;BMP180;6022;48.768;18.608;2022-07-03T08:18:33;98684.22;;;47.80
11926;BMP180;6022;48.768;18.608;2022-07-03T08:21:01;98685.53;;;47.94
11926;BMP180;6022;48.768;18.608;2022-07-03T08:23:30;98691.28;;;47.15
11926;BMP180;6022;48.768;18.608;2022-07-03T08:25:58;98678.47;;;46.83
11926;BMP180;6022;48.768;18.608;2022-07-03T08:28:26;98687.97;;;47.18
11926;BMP180;6022;48.768;18.608;2022-07-03T08:30:53;98686.41;;;47.37
11926;BMP180;6022;48.768;18.608;2022-07-03T08:33:20;98684.72;;;47.73
11926;BMP180;6022;48.768;18.608;2022-07-03T08:35:48;98676.22;;;47.22
11926;BMP180;6022;48.768;18.608;2022-07-03T08:38:15;98678.47;;;46.83
11926;BMP180;6022;48.768;18.608;2022-07-03T08:40:44;98668.69;;;46.87
11926;BMP180;6022;48.768;18.608;2022-07-03T08:43:12;98677.75;;;47.32
11926;BMP180;6022;48.768;18.608;2022-07-03T08:45:41;98675.06;;;46.66
11926;BMP180;6022;48.768;18.608;2022-07-03T08:48:10;98672.44;;;46.58
11926;BMP180;6022;48.768;18.608;2022-07-03T08:50:38;98674.19;;;46.54
11926;BMP180;6022;48.768;18.608;2022-07-03T08:53:10;98662.63;;;47.68
11926;BMP180;6022;48.768;18.608;2022-07-03T08:55:37;98662.19;;;47.17
11926;BMP180;6022;48.768;18.608;2022-07-03T08:58:05;98661.69;;;47.15
11926;BMP180;6022;48.768;18.608;2022-07-03T09:00:35;98671.03;;;46.52
11926;BMP180;6022;48.768;18.608;2022-07-03T09:03:09;98662.22;;;47.09
11926;BMP180;6022;48.768;18.608;2022-07-03T09:05:40;98656.44;;;47.27
11926;BMP180;6022;48.768;18.608;2022-07-03T09:08:09;98658.66;;;47.45
11926;BMP180;6022;48.768;18.608;2022-07-03T09:10:37;98649.47;;;47.26
11926;BMP180;6022;48.768;18.608;2022-07-03T09:13:04;98649.91;;;47.57
11926;BMP180;6022;48.768;18.608;2022-07-03T09:15:31;98644.66;;;47.11
11926;BMP180;6022;48.768;18.608;2022-07-03T09:18:07;98664.13;;;47.77
11926;BMP180;6022;48.768;18.608;2022-07-03T09:20:37;98650.59;;;46.96
11926;BMP180;6022;48.768;18.608;2022-07-03T09:23:17;98642.69;;;46.63
11926;BMP180;6022;48.768;18.608;2022-07-03T09:25:59;98648.66;;;46.68
11926;BMP180;6022;48.768;18.608;2022-07-03T09:31:27;98662.06;;;46.23
11926;BMP180;6022;48.768;18.608;2022-07-03T09:34:03;98649.97;;;45.75
11926;BMP180;6022;48.768;18.608;2022-07-03T09:36:48;98648.34;;;46.24
11926;BMP180;6022;48.768;18.608;2022-07-03T09:39:26;98653.03;;;46.36
11926;BMP180;6022;48.768;18.608;2022-07-03T09:42:06;98653.72;;;46.07
11926;BMP180;6022;48.768;18.608;2022-07-03T09:44:41;98639.88;;;45.89
11926;BMP180;6022;48.768;18.608;2022-07-03T09:47:24;98648.34;;;46.24
11926;BMP180;6022;48.768;18.608;2022-07-03T09:49:56;98647.09;;;46.13
11926;BMP180;6022;48.768;18.608;2022-07-03T10:00:21;98641.91;;;44.47
11926;BMP180;6022;48.768;18.608;2022-07-03T10:05:37;98627.88;;;44.42
11926;BMP180;6022;48.768;18.608;2022-07-03T10:08:14;98630.53;;;44.72
11926;BMP180;6022;48.768;18.608;2022-07-03T10:10:45;98624.56;;;44.75
11926;BMP180;6022;48.768;18.608;2022-07-03T10:13:14;98633.78;;;44.61
11926;BMP180;6022;48.768;18.608;2022-07-03T10:15:43;98621.47;;;44.00
11926;BMP180;6022;48.768;18.608;2022-07-03T10:18:14;98636.59;;;43.61
11926;BMP180;6022;48.768;18.608;2022-07-03T10:20:48;98626.09;;;43.51
11926;BMP180;6022;48.768;18.608;2022-07-03T10:23:17;98625.59;;;43.62
11926;BMP180;6022;48.768;18.608;2022-07-03T10:25:47;98617.84;;;43.26
11926;BMP180;6022;48.768;18.608;2022-07-03T10:28:18;98610.84;;;43.03
11926;BMP180;6022;48.768;18.608;2022-07-03T10:30:48;98620.34;;;42.42
11926;BMP180;6022;48.768;18.608;2022-07-03T10:33:16;98609.56;;;42.02
11926;BMP180;6022;48.768;18.608;2022-07-03T10:35:53;98619.19;;;41.85
11926;BMP180;6022;48.768;18.608;2022-07-03T10:38:41;98608.94;;;41.19
11926;BMP180;6022;48.768;18.608;2022-07-03T10:41:37;98615.06;;;40.78
11926;BMP180;6022;48.768;18.608;2022-07-03T10:44:24;98618.06;;;40.71
11926;BMP180;6022;48.768;18.608;2022-07-03T10:47:43;98610.16;;;40.38
11926;BMP180;6022;48.768;18.608;2022-07-03T10:50:16;98601.72;;;40.03
11926;BMP180;6022;48.768;18.608;2022-07-03T10:52:45;98602.66;;;40.17
11926;BMP180;6022;48.768;18.608;2022-07-03T10:55:15;98607.75;;;40.14
11926;BMP180;6022;48.768;18.608;2022-07-03T10:58:06;98603.25;;;40.09
11926;BMP180;6022;48.768;18.608;2022-07-03T11:00:54;98604.72;;;40.25
11926;BMP180;6022;48.768;18.608;2022-07-03T11:09:14;98592.66;;;40.60
11926;BMP180;6022;48.768;18.608;2022-07-03T11:11:45;98582.78;;;40.61
11926;BMP180;6022;48.768;18.608;2022-07-03T11:14:23;98581.50;;;40.58
11926;BMP180;6022;48.768;18.608;2022-07-03T11:17:20;98580.19;;;40.28
11926;BMP180;6022;48.768;18.608;2022-07-03T11:19:50;98580.78;;;40.25
11926;BMP180;6022;48.768;18.608;2022-07-03T11:22:54;98571.47;;;40.22
11926;BMP180;6022;48.768;18.608;2022-07-03T11:25:25;98573.34;;;40.22
11926;BMP180;6022;48.768;18.608;2022-07-03T11:27:52;98573.72;;;40.34
11926;BMP180;6022;48.768;18.608;2022-07-03T11:30:20;98569.66;;;40.18
11926;BMP180;6022;48.768;18.608;2022-07-03T11:32:54;98569.78;;;40.08
11926;BMP180;6022;48.768;18.608;2022-07-03T11:38:27;98568.91;;;39.84
11926;BMP180;6022;48.768;18.608;2022-07-03T11:40:58;98570.09;;;39.69
11926;BMP180;6022;48.768;18.608;2022-07-03T11:43:25;98565.91;;;39.58
11926;BMP180;6022;48.768;18.608;2022-07-03T11:45:53;98562.84;;;39.41
11926;BMP180;6022;48.768;18.608;2022-07-03T11:48:23;98563.72;;;39.32
11926;BMP180;6022;48.768;18.608;2022-07-03T11:51:01;98548.97;;;39.06
11926;BMP180;6022;48.768;18.608;2022-07-03T11:53:35;98555.69;;;38.94
11926;BMP180;6022;48.768;18.608;2022-07-03T11:56:06;98545.50;;;38.48
11926;BMP180;6022;48.768;18.608;2022-07-03T11:58:57;98547.13;;;38.49
11926;BMP180;6022;48.768;18.608;2022-07-03T12:04:30;98540.41;;;38.66
11926;BMP180;6022;48.768;18.608;2022-07-03T12:06:59;98540.66;;;38.64
11926;BMP180;6022;48.768;18.608;2022-07-03T12:09:32;98531.34;;;38.72
11926;BMP180;6022;48.768;18.608;2022-07-03T12:12:10;98531.88;;;38.69
11926;BMP180;6022;48.768;18.608;2022-07-03T12:14:49;98525.34;;;38.52
11926;BMP180;6022;48.768;18.608;2022-07-03T12:17:22;98522.38;;;38.63
11926;BMP180;6022;48.768;18.608;2022-07-03T12:19:56;98533.63;;;38.30
11926;BMP180;6022;48.768;18.608;2022-07-03T12:25:12;98510.09;;;38.09
11926;BMP180;6022;48.768;18.608;2022-07-03T12:27:43;98505.63;;;37.95
11926;BMP180;6022;48.768;18.608;2022-07-03T12:30:21;98502.38;;;38.13
11926;BMP180;6022;48.768;18.608;2022-07-03T12:32:54;98509.56;;;37.97
11926;BMP180;6022;48.768;18.608;2022-07-03T12:35:27;98494.25;;;37.65
11926;BMP180;6022;48.768;18.608;2022-07-03T12:37:55;98489.72;;;37.31
11926;BMP180;6022;48.768;18.608;2022-07-03T12:40:23;98504.72;;;36.91
11926;BMP180;6022;48.768;18.608;2022-07-03T12:42:55;98490.03;;;36.54
11926;BMP180;6022;48.768;18.608;2022-07-03T12:45:26;98490.88;;;36.13
11926;BMP180;6022;48.768;18.608;2022-07-03T12:48:07;98485.91;;;35.81
11926;BMP180;6022;48.768;18.608;2022-07-03T12:50:49;98481.22;;;35.51
11926;BMP180;6022;48.768;18.608;2022-07-03T12:53:31;98484.03;;;35.40
11926;BMP180;6022;48.768;18.608;2022-07-03T12:56:06;98486.97;;;35.17
11926;BMP180;6022;48.768;18.608;2022-07-03T12:58:39;98491.81;;;35.25
11926;BMP180;6022;48.768;18.608;2022-07-03T13:01:34;98482.97;;;34.89
11926;BMP180;6022;48.768;18.608;2022-07-03T13:04:08;98475.16;;;34.72
11926;BMP180;6022;48.768;18.608;2022-07-03T13:06:36;98476.97;;;34.72
11926;BMP180;6022;48.768;18.608;2022-07-03T13:09:05;98472.81;;;34.76
11926;BMP180;6022;48.768;18.608;2022-07-03T13:11:41;98475.94;;;34.73
11926;BMP180;6022;48.768;18.608;2022-07-03T13:16:49;98476.84;;;34.57
11926;BMP180;6022;48.768;18.608;2022-07-03T13:19:19;98467.75;;;34.48
11926;BMP180;6022;48.768;18.608;2022-07-03T13:21:48;98464.81;;;34.24
11926;BMP180;6022;48.768;18.608;2022-07-03T13:24:18;98466.38;;;34.25
11926;BMP180;6022;48.768;18.608;2022-07-03T13:26:48;98462.97;;;34.24
11926;BMP180;6022;48.768;18.608;2022-07-03T13:29:21;98462.75;;;34.09
11926;BMP180;6022;48.768;18.608;2022-07-03T13:31:53;98457.09;;;34.01
11926;BMP180;6022;48.768;18.608;2022-07-03T13:34:21;98459.25;;;34.04
11926;BMP180;6022;48.768;18.608;2022-07-03T13:36:49;98457.03;;;34.12
11926;BMP180;6022;48.768;18.608;2022-07-03T13:39:17;98453.56;;;34.12
11926;BMP180;6022;48.768;18.608;2022-07-03T13:41:44;98457.72;;;34.08
11926;BMP180;6022;48.768;18.608;2022-07-03T13:44:12;98449.59;;;33.88
11926;BMP180;6022;48.768;18.608;2022-07-03T13:46:39;98446.44;;;33.91
11926;BMP180;6022;48.768;18.608;2022-07-03T13:49:06;98448.59;;;33.94
11926;BMP180;6022;48.768;18.608;2022-07-03T13:51:34;98447.50;;;33.74
11926;BMP180;6022;48.768;18.608;2022-07-03T13:54:01;98443.19;;;33.68
11926;BMP180;6022;48.768;18.608;2022-07-03T13:56:28;98445.28;;;33.66
11926;BMP180;6022;48.768;18.608;2022-07-03T13:58:56;98441.94;;;33.54
11926;BMP180;6022;48.768;18.608;2022-07-03T14:01:23;98440.03;;;33.50
11926;BMP180;6022;48.768;18.608;2022-07-03T14:03:50;98441.22;;;33.42
11926;BMP180;6022;48.768;18.608;2022-07-03T14:06:17;98431.78;;;33.30
11926;BMP180;6022;48.768;18.608;2022-07-03T14:08:45;98438.31;;;33.27
11926;BMP180;6022;48.768;18.608;2022-07-03T14:11:12;98428.47;;;33.34
11926;BMP180;6022;48.768;18.608;2022-07-03T14:13:39;98436.88;;;33.20
11926;BMP180;6022;48.768;18.608;2022-07-03T14:16:06;98429.00;;;33.20
11926;BMP180;6022;48.768;18.608;2022-07-03T14:18:34;98432.75;;;33.24
11926;BMP180;6022;48.768;18.608;2022-07-03T14:21:01;98427.09;;;33.32
11926;BMP180;6022;48.768;18.608;2022-07-03T14:23:28;98430.28;;;33.34
11926;BMP180;6022;48.768;18.608;2022-07-03T14:25:56;98430.06;;;33.19
11926;BMP180;6022;48.768;18.608;2022-07-03T14:28:24;98419.59;;;33.08
11926;BMP180;6022;48.768;18.608;2022-07-03T14:31:16;98424.94;;;33.13
11926;BMP180;6022;48.768;18.608;2022-07-03T14:33:47;98433.00;;;33.06
11926;BMP180;6022;48.768;18.608;2022-07-03T14:36:16;98424.75;;;32.86
11926;BMP180;6022;48.768;18.608;2022-07-03T14:39:04;98427.38;;;32.86
11926;BMP180;6022;48.768;18.608;2022-07-03T14:41:31;98424.56;;;32.77
11926;BMP180;6022;48.768;18.608;2022-07-03T14:43:58;98425.88;;;32.63
11926;BMP180;6022;48.768;18.608;2022-07-03T14:46:26;98419.03;;;32.62
11926;BMP180;6022;48.768;18.608;2022-07-03T14:48:53;98417.28;;;32.67
11926;BMP180;6022;48.768;18.608;2022-07-03T14:51:20;98420.31;;;32.76
11926;BMP180;6022;48.768;18.608;2022-07-03T14:53:47;98412.69;;;32.74
11926;BMP180;6022;48.768;18.608;2022-07-03T14:56:19;98413.47;;;32.75
11926;BMP180;6022;48.768;18.608;2022-07-03T14:58:49;98414.38;;;32.52
11926;BMP180;6022;48.768;18.608;2022-07-03T15:01:17;98415.47;;;32.40
11926;BMP180;6022;48.768;18.608;2022-07-03T15:07:01;98419.69;;;32.41
11926;BMP180;6022;48.768;18.608;2022-07-03T15:09:37;98415.47;;;32.40
11926;BMP180;6022;48.768;18.608;2022-07-03T15:12:06;98408.16;;;32.42
11926;BMP180;6022;48.768;18.608;2022-07-03T15:14:53;98405.84;;;32.34
11926;BMP180;6022;48.768;18.608;2022-07-03T15:17:21;98402.44;;;32.34
11926;BMP180;6022;48.768;18.608;2022-07-03T15:19:50;98405.75;;;32.29
11926;BMP180;6022;48.768;18.608;2022-07-03T15:22:20;98412.19;;;32.22
11926;BMP180;6022;48.768;18.608;2022-07-03T15:24:52;98402.25;;;32.24
11926;BMP180;6022;48.768;18.608;2022-07-03T15:27:23;98394.25;;;32.19
11926;BMP180;6022;48.768;18.608;2022-07-03T15:29:51;98406.47;;;32.13
11926;BMP180;6022;48.768;18.608;2022-07-03T15:32:19;98395.78;;;32.03
11926;BMP180;6022;48.768;18.608;2022-07-03T15:34:46;98396.00;;;32.02
11926;BMP180;6022;48.768;18.608;2022-07-03T15:40:05;98394.19;;;31.91
11926;BMP180;6022;48.768;18.608;2022-07-03T15:45:12;98403.34;;;31.77
11926;BMP180;6022;48.768;18.608;2022-07-03T15:47:57;98388.59;;;31.76